sensor_id;sensor_type;location;lat;lon;timestamp;temperature;humidity
29551;DHT22;16488;52.396;10.696;2023-05-10T00:01:11;13.90;86.20
29551;DHT22;16488;52.396;10.696;2023-05-10T00:03:37;13.90;86.30
29551;DHT22;16488;52.396;10.696;2023-05-10T00:06:02;13.90;86.50
29551;DHT22;16488;52.396;10.696;2023-05-10T00:08:28;13.90;86.80
29551;DHT22;16488;52.396;10.696;2023-05-10T00:10:53;13.80;87.00
29551;DHT22;16488;52.396;10.696;2023-05-10T00:13:19;13.80;87.30
29551;DHT22;16488;52.396;10.696;2023-05-10T00:15:45;13.80;87.30
29551;DHT22;16488;52.396;10.696;2023-05-10T00:18:10;13.70;87.60
29551;DHT22;16488;52.396;10.696;2023-05-10T00:20:36;13.70;88.00
29551;DHT22;16488;52.396;10.696;2023-05-10T00:23:02;13.70;87.80
29551;DHT22;16488;52.396;10.696;2023-05-10T00:25:27;13.70;88.00
29551;DHT22;16488;52.396;10.696;2023-05-10T00:27:53;13.60;88.30
29551;DHT22;16488;52.396;10.696;2023-05-10T00:30:20;13.60;88.60
29551;DHT22;16488;52.396;10.696;2023-05-10T00:32:46;13.50;88.80
29551;DHT22;16488;52.396;10.696;2023-05-10T00:35:13;13.50;89.10
29551;DHT22;16488;52.396;10.696;2023-05-10T00:37:39;13.50;89.20
29551;DHT22;16488;52.396;10.696;2023-05-10T00:40:05;13.40;89.40
29551;DHT22;16488;52.396;10.696;2023-05-10T00:42:31;13.40;89.40
29551;DHT22;16488;52.396;10.696;2023-05-10T00:44:57;13.40;90.10
29551;DHT22;16488;52.396;10.696;2023-05-10T00:47:23;13.40;89.70
29551;DHT22;16488;52.396;10.696;2023-05-10T00:49:48;13.40;90.00
29551;DHT22;16488;52.396;10.696;2023-05-10T00:52:15;13.40;90.00
29551;DHT22;16488;52.396;10.696;2023-05-10T00:54:40;13.30;90.00
29551;DHT22;16488;52.396;10.696;2023-05-10T00:57:06;13.40;90.10
29551;DHT22;16488;52.396;10.696;2023-05-10T00:59:32;13.30;90.20
29551;DHT22;16488;52.396;10.696;2023-05-10T01:01:57;13.30;90.30
29551;DHT22;16488;52.396;10.696;2023-05-10T01:04:23;13.30;90.30
29551;DHT22;16488;52.396;10.696;2023-05-10T01:06:51;13.20;90.40
29551;DHT22;16488;52.396;10.696;2023-05-10T01:09:18;13.20;90.60
29551;DHT22;16488;52.396;10.696;2023-05-10T01:11:44;13.20;90.60
29551;DHT22;16488;52.396;10.696;2023-05-10T01:14:10;13.20;90.60
29551;DHT22;16488;52.396;10.696;2023-05-10T01:16:40;13.20;90.60
29551;DHT22;16488;52.396;10.696;2023-05-10T01:19:15;13.10;90.70
29551;DHT22;16488;52.396;10.696;2023-05-10T01:33:01;12.90;91.30
29551;DHT22;16488;52.396;10.696;2023-05-10T01:35:43;12.90;91.50
29551;DHT22;16488;52.396;10.696;2023-05-10T01:38:20;12.90;92.00
29551;DHT22;16488;52.396;10.696;2023-05-10T01:40:50;12.80;91.80
29551;DHT22;16488;52.396;10.696;2023-05-10T01:43:21;12.80;92.00
29551;DHT22;16488;52.396;10.696;2023-05-10T01:46:10;12.70;92.00
29551;DHT22;16488;52.396;10.696;2023-05-10T01:48:51;12.70;92.10
29551;DHT22;16488;52.396;10.696;2023-05-10T01:51:27;12.70;92.10
29551;DHT22;16488;52.396;10.696;2023-05-10T01:53:59;12.80;92.10
29551;DHT22;16488;52.396;10.696;2023-05-10T01:56:26;12.70;92.20
29551;DHT22;16488;52.396;10.696;2023-05-10T01:58:54;12.70;92.30
29551;DHT22;16488;52.396;10.696;2023-05-10T02:01:21;12.80;92.20
29551;DHT22;16488;52.396;10.696;2023-05-10T02:03:47;12.70;92.30
29551;DHT22;16488;52.396;10.696;2023-05-10T02:06:14;12.70;92.60
29551;DHT22;16488;52.396;10.696;2023-05-10T02:08:43;12.70;92.80
29551;DHT22;16488;52.396;10.696;2023-05-10T02:11:13;12.70;92.80
29551;DHT22;16488;52.396;10.696;2023-05-10T02:13:38;12.60;92.90
29551;DHT22;16488;52.396;10.696;2023-05-10T02:16:05;12.60;93.00
29551;DHT22;16488;52.396;10.696;2023-05-10T02:18:31;12.70;93.20
29551;DHT22;16488;52.396;10.696;2023-05-10T02:20:58;12.70;93.40
29551;DHT22;16488;52.396;10.696;2023-05-10T02:23:25;12.60;93.20
29551;DHT22;16488;52.396;10.696;2023-05-10T02:25:52;12.60;93.40
29551;DHT22;16488;52.396;10.696;2023-05-10T02:28:19;12.60;93.80
29551;DHT22;16488;52.396;10.696;2023-05-10T02:30:47;12.70;93.80
29551;DHT22;16488;52.396;10.696;2023-05-10T02:33:13;12.50;93.60
29551;DHT22;16488;52.396;10.696;2023-05-10T02:35:39;12.50;93.90
29551;DHT22;16488;52.396;10.696;2023-05-10T02:38:06;12.50;94.30
29551;DHT22;16488;52.396;10.696;2023-05-10T02:40:32;12.50;94.40
29551;DHT22;16488;52.396;10.696;2023-05-10T02:42:59;12.50;94.20
29551;DHT22;16488;52.396;10.696;2023-05-10T02:45:30;12.50;94.40
29551;DHT22;16488;52.396;10.696;2023-05-10T02:47:56;12.40;94.60
29551;DHT22;16488;52.396;10.696;2023-05-10T02:50:22;12.40;95.00
29551;DHT22;16488;52.396;10.696;2023-05-10T02:52:51;12.40;94.90
29551;DHT22;16488;52.396;10.696;2023-05-10T02:55:21;12.30;94.90
29551;DHT22;16488;52.396;10.696;2023-05-10T02:57:59;12.20;94.50
29551;DHT22;16488;52.396;10.696;2023-05-10T03:00:25;12.30;95.10
29551;DHT22;16488;52.396;10.696;2023-05-10T03:02:51;12.30;95.00
29551;DHT22;16488;52.396;10.696;2023-05-10T03:05:17;12.30;95.30
29551;DHT22;16488;52.396;10.696;2023-05-10T03:07:44;12.20;95.40
29551;DHT22;16488;52.396;10.696;2023-05-10T03:10:09;12.20;95.70
29551;DHT22;16488;52.396;10.696;2023-05-10T03:12:41;12.20;95.60
29551;DHT22;16488;52.396;10.696;2023-05-10T03:15:37;12.00;95.70
29551;DHT22;16488;52.396;10.696;2023-05-10T03:18:17;12.10;96.00
29551;DHT22;16488;52.396;10.696;2023-05-10T03:20:50;12.10;96.00
29551;DHT22;16488;52.396;10.696;2023-05-10T03:23:27;12.10;96.10
29551;DHT22;16488;52.396;10.696;2023-05-10T03:25:55;12.10;96.10
29551;DHT22;16488;52.396;10.696;2023-05-10T03:28:21;12.10;96.30
29551;DHT22;16488;52.396;10.696;2023-05-10T03:30:47;12.10;96.30
29551;DHT22;16488;52.396;10.696;2023-05-10T03:33:13;12.10;96.40
29551;DHT22;16488;52.396;10.696;2023-05-10T03:35:39;12.10;96.30
29551;DHT22;16488;52.396;10.696;2023-05-10T03:38:05;12.00;96.10
29551;DHT22;16488;52.396;10.696;2023-05-10T03:40:30;12.00;96.20
29551;DHT22;16488;52.396;10.696;2023-05-10T03:43:00;12.10;96.10
29551;DHT22;16488;52.396;10.696;2023-05-10T03:45:26;12.10;96.50
29551;DHT22;16488;52.396;10.696;2023-05-10T03:47:52;12.10;96.70
29551;DHT22;16488;52.396;10.696;2023-05-10T03:50:17;12.10;96.40
29551;DHT22;16488;52.396;10.696;2023-05-10T03:52:44;12.10;96.00
29551;DHT22;16488;52.396;10.696;2023-05-10T03:55:10;12.20;96.00
29551;DHT22;16488;52.396;10.696;2023-05-10T03:57:35;12.10;96.20
29551;DHT22;16488;52.396;10.696;2023-05-10T04:00:02;12.10;96.40
29551;DHT22;16488;52.396;10.696;2023-05-10T04:02:28;12.10;96.10
29551;DHT22;16488;52.396;10.696;2023-05-10T04:04:55;12.20;96.40
29551;DHT22;16488;52.396;10.696;2023-05-10T04:07:20;12.20;96.30
29551;DHT22;16488;52.396;10.696;2023-05-10T04:09:46;12.20;96.30
29551;DHT22;16488;52.396;10.696;2023-05-10T04:12:12;12.10;97.00
29551;DHT22;16488;52.396;10.696;2023-05-10T04:14:38;12.20;96.50
29551;DHT22;16488;52.396;10.696;2023-05-10T04:17:03;12.20;96.50
29551;DHT22;16488;52.396;10.696;2023-05-10T04:19:32;12.20;97.20
29551;DHT22;16488;52.396;10.696;2023-05-10T04:21:58;12.20;96.60
29551;DHT22;16488;52.396;10.696;2023-05-10T04:24:24;12.40;96.90
29551;DHT22;16488;52.396;10.696;2023-05-10T04:26:50;12.30;96.80
29551;DHT22;16488;52.396;10.696;2023-05-10T04:29:16;12.30;96.60
29551;DHT22;16488;52.396;10.696;2023-05-10T04:31:42;12.30;96.50
29551;DHT22;16488;52.396;10.696;2023-05-10T04:34:07;12.40;96.50
29551;DHT22;16488;52.396;10.696;2023-05-10T04:36:33;12.40;96.40
29551;DHT22;16488;52.396;10.696;2023-05-10T04:39:00;12.40;96.50
29551;DHT22;16488;52.396;10.696;2023-05-10T04:41:28;12.40;97.00
29551;DHT22;16488;52.396;10.696;2023-05-10T04:43:53;12.40;96.40
29551;DHT22;16488;52.396;10.696;2023-05-10T04:46:19;12.40;96.70
29551;DHT22;16488;52.396;10.696;2023-05-10T04:48:44;12.40;96.90
29551;DHT22;16488;52.396;10.696;2023-05-10T04:51:11;12.40;96.60
29551;DHT22;16488;52.396;10.696;2023-05-10T04:53:36;12.50;96.60
29551;DHT22;16488;52.396;10.696;2023-05-10T04:56:02;12.60;96.40
29551;DHT22;16488;52.396;10.696;2023-05-10T04:58:28;12.60;96.50
29551;DHT22;16488;52.396;10.696;2023-05-10T05:00:53;12.60;96.30
29551;DHT22;16488;52.396;10.696;2023-05-10T05:03:19;12.70;96.30
29551;DHT22;16488;52.396;10.696;2023-05-10T05:05:44;12.70;96.40
29551;DHT22;16488;52.396;10.696;2023-05-10T05:08:10;12.70;96.30
29551;DHT22;16488;52.396;10.696;2023-05-10T05:10:36;12.70;96.40
29551;DHT22;16488;52.396;10.696;2023-05-10T05:13:01;12.70;96.50
29551;DHT22;16488;52.396;10.696;2023-05-10T05:15:27;12.70;96.40
29551;DHT22;16488;52.396;10.696;2023-05-10T05:17:53;12.80;96.40
29551;DHT22;16488;52.396;10.696;2023-05-10T05:20:19;12.70;96.40
29551;DHT22;16488;52.396;10.696;2023-05-10T05:22:44;12.70;96.50
29551;DHT22;16488;52.396;10.696;2023-05-10T05:25:10;12.80;96.50
29551;DHT22;16488;52.396;10.696;2023-05-10T05:27:37;12.80;96.70
29551;DHT22;16488;52.396;10.696;2023-05-10T05:30:02;12.80;96.70
29551;DHT22;16488;52.396;10.696;2023-05-10T05:32:29;12.80;96.70
29551;DHT22;16488;52.396;10.696;2023-05-10T05:34:55;12.80;96.60
29551;DHT22;16488;52.396;10.696;2023-05-10T05:37:21;12.90;96.90
29551;DHT22;16488;52.396;10.696;2023-05-10T05:39:47;12.80;96.80
29551;DHT22;16488;52.396;10.696;2023-05-10T05:42:13;12.80;97.00
29551;DHT22;16488;52.396;10.696;2023-05-10T05:44:39;12.80;97.30
29551;DHT22;16488;52.396;10.696;2023-05-10T05:47:06;12.70;97.20
29551;DHT22;16488;52.396;10.696;2023-05-10T05:49:32;12.80;97.40
29551;DHT22;16488;52.396;10.696;2023-05-10T05:52:02;12.80;97.20
29551;DHT22;16488;52.396;10.696;2023-05-10T05:54:28;12.80;97.40
29551;DHT22;16488;52.396;10.696;2023-05-10T05:56:54;12.70;97.90
29551;DHT22;16488;52.396;10.696;2023-05-10T05:59:20;12.70;97.70
29551;DHT22;16488;52.396;10.696;2023-05-10T06:01:46;12.80;97.50
29551;DHT22;16488;52.396;10.696;2023-05-10T06:04:12;12.80;97.40
29551;DHT22;16488;52.396;10.696;2023-05-10T06:06:38;12.80;97.80
29551;DHT22;16488;52.396;10.696;2023-05-10T06:09:03;12.90;97.90
29551;DHT22;16488;52.396;10.696;2023-05-10T06:11:29;12.90;98.00
29551;DHT22;16488;52.396;10.696;2023-05-10T06:13:57;13.00;98.00
29551;DHT22;16488;52.396;10.696;2023-05-10T06:16:23;13.00;98.20
29551;DHT22;16488;52.396;10.696;2023-05-10T06:18:49;13.10;98.20
29551;DHT22;16488;52.396;10.696;2023-05-10T06:21:14;13.10;98.70
29551;DHT22;16488;52.396;10.696;2023-05-10T06:23:40;13.20;98.10
29551;DHT22;16488;52.396;10.696;2023-05-10T06:26:06;13.10;98.20
29551;DHT22;16488;52.396;10.696;2023-05-10T06:28:31;13.10;98.30
29551;DHT22;16488;52.396;10.696;2023-05-10T06:30:59;13.10;98.10
29551;DHT22;16488;52.396;10.696;2023-05-10T06:33:24;13.10;98.40
29551;DHT22;16488;52.396;10.696;2023-05-10T06:35:50;13.10;98.50
29551;DHT22;16488;52.396;10.696;2023-05-10T06:38:15;13.10;98.50
29551;DHT22;16488;52.396;10.696;2023-05-10T06:40:41;13.10;98.60
29551;DHT22;16488;52.396;10.696;2023-05-10T06:43:07;13.20;98.60
29551;DHT22;16488;52.396;10.696;2023-05-10T06:45:33;13.20;98.70
29551;DHT22;16488;52.396;10.696;2023-05-10T06:47:59;13.20;98.50
29551;DHT22;16488;52.396;10.696;2023-05-10T06:50:25;13.30;98.50
29551;DHT22;16488;52.396;10.696;2023-05-10T06:52:50;13.50;98.40
29551;DHT22;16488;52.396;10.696;2023-05-10T06:55:16;13.50;98.20
29551;DHT22;16488;52.396;10.696;2023-05-10T06:57:41;13.60;97.90
29551;DHT22;16488;52.396;10.696;2023-05-10T07:00:07;13.50;98.20
29551;DHT22;16488;52.396;10.696;2023-05-10T07:02:34;13.60;98.20
29551;DHT22;16488;52.396;10.696;2023-05-10T07:05:00;13.60;98.20
29551;DHT22;16488;52.396;10.696;2023-05-10T07:07:26;13.60;98.20
29551;DHT22;16488;52.396;10.696;2023-05-10T07:09:52;13.70;98.60
29551;DHT22;16488;52.396;10.696;2023-05-10T07:12:17;13.80;98.50
29551;DHT22;16488;52.396;10.696;2023-05-10T07:14:43;13.80;98.10
29551;DHT22;16488;52.396;10.696;2023-05-10T07:17:09;13.90;98.10
29551;DHT22;16488;52.396;10.696;2023-05-10T07:19:35;13.90;98.10
29551;DHT22;16488;52.396;10.696;2023-05-10T07:22:01;14.00;98.50
29551;DHT22;16488;52.396;10.696;2023-05-10T07:24:27;14.10;98.50
29551;DHT22;16488;52.396;10.696;2023-05-10T07:26:52;14.20;98.50
29551;DHT22;16488;52.396;10.696;2023-05-10T07:29:18;14.30;98.60
29551;DHT22;16488;52.396;10.696;2023-05-10T07:31:44;14.40;98.60
29551;DHT22;16488;52.396;10.696;2023-05-10T07:34:10;14.40;98.10
29551;DHT22;16488;52.396;10.696;2023-05-10T07:36:36;14.40;98.10
29551;DHT22;16488;52.396;10.696;2023-05-10T07:39:01;14.30;98.40
29551;DHT22;16488;52.396;10.696;2023-05-10T07:41:27;14.40;99.00
29551;DHT22;16488;52.396;10.696;2023-05-10T07:43:53;14.40;99.10
29551;DHT22;16488;52.396;10.696;2023-05-10T07:46:18;14.50;98.80
29551;DHT22;16488;52.396;10.696;2023-05-10T07:48:45;14.40;99.00
29551;DHT22;16488;52.396;10.696;2023-05-10T07:51:11;14.40;99.00
29551;DHT22;16488;52.396;10.696;2023-05-10T07:53:38;14.30;99.40
29551;DHT22;16488;52.396;10.696;2023-05-10T07:56:38;14.40;99.60
29551;DHT22;16488;52.396;10.696;2023-05-10T07:59:05;14.30;99.90
29551;DHT22;16488;52.396;10.696;2023-05-10T08:01:33;14.20;99.90
29551;DHT22;16488;52.396;10.696;2023-05-10T08:03:58;14.20;99.90
29551;DHT22;16488;52.396;10.696;2023-05-10T08:06:24;14.30;99.90
29551;DHT22;16488;52.396;10.696;2023-05-10T08:08:52;14.20;99.90
29551;DHT22;16488;52.396;10.696;2023-05-10T08:11:20;14.20;99.90
29551;DHT22;16488;52.396;10.696;2023-05-10T08:13:46;14.30;99.90
29551;DHT22;16488;52.396;10.696;2023-05-10T08:16:12;14.30;99.90
29551;DHT22;16488;52.396;10.696;2023-05-10T08:18:38;14.30;99.90
29551;DHT22;16488;52.396;10.696;2023-05-10T08:21:04;14.40;99.90
29551;DHT22;16488;52.396;10.696;2023-05-10T08:23:30;14.40;99.90
29551;DHT22;16488;52.396;10.696;2023-05-10T08:25:56;14.40;99.90
29551;DHT22;16488;52.396;10.696;2023-05-10T08:28:21;14.40;99.90
29551;DHT22;16488;52.396;10.696;2023-05-10T08:30:47;14.40;99.90
29551;DHT22;16488;52.396;10.696;2023-05-10T08:33:13;14.30;99.90
29551;DHT22;16488;52.396;10.696;2023-05-10T08:35:38;14.20;99.90
29551;DHT22;16488;52.396;10.696;2023-05-10T08:38:04;14.20;99.90
29551;DHT22;16488;52.396;10.696;2023-05-10T08:40:29;14.30;99.90
29551;DHT22;16488;52.396;10.696;2023-05-10T08:43:11;14.20;99.90
29551;DHT22;16488;52.396;10.696;2023-05-10T08:45:39;14.10;99.90
29551;DHT22;16488;52.396;10.696;2023-05-10T08:48:07;14.00;99.90
29551;DHT22;16488;52.396;10.696;2023-05-10T08:50:37;13.90;99.90
29551;DHT22;16488;52.396;10.696;2023-05-10T08:53:10;13.90;99.90
29551;DHT22;16488;52.396;10.696;2023-05-10T08:55:37;13.80;99.90
29551;DHT22;16488;52.396;10.696;2023-05-10T08:58:04;13.60;99.90
29551;DHT22;16488;52.396;10.696;2023-05-10T09:00:31;13.60;99.90
29551;DHT22;16488;52.396;10.696;2023-05-10T09:02:59;13.60;99.90
29551;DHT22;16488;52.396;10.696;2023-05-10T09:05:25;13.50;99.90
29551;DHT22;16488;52.396;10.696;2023-05-10T09:07:51;13.50;99.90
29551;DHT22;16488;52.396;10.696;2023-05-10T09:10:16;13.40;99.90
29551;DHT22;16488;52.396;10.696;2023-05-10T09:12:43;13.40;99.90
29551;DHT22;16488;52.396;10.696;2023-05-10T09:15:11;13.40;99.90
29551;DHT22;16488;52.396;10.696;2023-05-10T09:17:38;13.40;99.90
29551;DHT22;16488;52.396;10.696;2023-05-10T09:20:06;13.40;99.90
29551;DHT22;16488;52.396;10.696;2023-05-10T09:22:33;13.30;99.90
29551;DHT22;16488;52.396;10.696;2023-05-10T09:25:09;13.30;99.90
29551;DHT22;16488;52.396;10.696;2023-05-10T09:27:37;13.30;99.90
29551;DHT22;16488;52.396;10.696;2023-05-10T09:30:04;13.20;99.90
29551;DHT22;16488;52.396;10.696;2023-05-10T09:32:45;13.20;99.90
29551;DHT22;16488;52.396;10.696;2023-05-10T09:35:12;13.30;99.90
29551;DHT22;16488;52.396;10.696;2023-05-10T09:37:45;13.40;99.90
29551;DHT22;16488;52.396;10.696;2023-05-10T09:40:17;13.40;99.90
29551;DHT22;16488;52.396;10.696;2023-05-10T09:42:57;13.40;99.90
29551;DHT22;16488;52.396;10.696;2023-05-10T09:45:24;13.50;99.90
29551;DHT22;16488;52.396;10.696;2023-05-10T09:47:50;13.50;99.90
29551;DHT22;16488;52.396;10.696;2023-05-10T09:50:16;13.50;99.90
29551;DHT22;16488;52.396;10.696;2023-05-10T09:52:52;13.50;99.90
29551;DHT22;16488;52.396;10.696;2023-05-10T09:55:20;13.50;99.90
29551;DHT22;16488;52.396;10.696;2023-05-10T09:57:47;13.50;99.90
29551;DHT22;16488;52.396;10.696;2023-05-10T10:00:18;13.60;99.90
29551;DHT22;16488;52.396;10.696;2023-05-10T10:02:53;13.60;99.90
29551;DHT22;16488;52.396;10.696;2023-05-10T10:05:19;13.60;99.90
29551;DHT22;16488;52.396;10.696;2023-05-10T10:07:45;13.50;99.90
29551;DHT22;16488;52.396;10.696;2023-05-10T10:10:11;13.60;99.90
29551;DHT22;16488;52.396;10.696;2023-05-10T10:12:39;13.70;99.90
29551;DHT22;16488;52.396;10.696;2023-05-10T10:15:05;13.70;99.90
29551;DHT22;16488;52.396;10.696;2023-05-10T10:17:32;13.90;99.90
29551;DHT22;16488;52.396;10.696;2023-05-10T10:20:01;13.90;99.90
29551;DHT22;16488;52.396;10.696;2023-05-10T10:22:27;14.00;99.90
29551;DHT22;16488;52.396;10.696;2023-05-10T10:24:54;14.00;99.90
29551;DHT22;16488;52.396;10.696;2023-05-10T10:27:49;14.10;99.90
29551;DHT22;16488;52.396;10.696;2023-05-10T10:30:29;14.30;99.90
29551;DHT22;16488;52.396;10.696;2023-05-10T10:35:41;14.10;99.90
29551;DHT22;16488;52.396;10.696;2023-05-10T10:38:08;14.10;99.90
29551;DHT22;16488;52.396;10.696;2023-05-10T10:40:34;14.10;99.90
29551;DHT22;16488;52.396;10.696;2023-05-10T10:43:21;14.10;99.90
29551;DHT22;16488;52.396;10.696;2023-05-10T10:46:11;14.20;99.90
29551;DHT22;16488;52.396;10.696;2023-05-10T10:48:47;14.00;99.90
29551;DHT22;16488;52.396;10.696;2023-05-10T10:51:13;14.00;99.90
29551;DHT22;16488;52.396;10.696;2023-05-10T10:53:41;14.10;99.90
29551;DHT22;16488;52.396;10.696;2023-05-10T10:56:11;14.10;99.90
29551;DHT22;16488;52.396;10.696;2023-05-10T10:58:39;14.00;99.90
29551;DHT22;16488;52.396;10.696;2023-05-10T11:01:12;14.00;99.90
29551;DHT22;16488;52.396;10.696;2023-05-10T11:03:38;14.00;99.90
29551;DHT22;16488;52.396;10.696;2023-05-10T11:06:04;14.10;99.90
29551;DHT22;16488;52.396;10.696;2023-05-10T11:08:32;14.30;99.90
29551;DHT22;16488;52.396;10.696;2023-05-10T11:13:47;14.30;99.90
29551;DHT22;16488;52.396;10.696;2023-05-10T11:16:19;14.50;99.90
29551;DHT22;16488;52.396;10.696;2023-05-10T11:19:07;14.60;99.90
29551;DHT22;16488;52.396;10.696;2023-05-10T11:21:34;14.70;99.90
29551;DHT22;16488;52.396;10.696;2023-05-10T11:24:13;14.80;99.90
29551;DHT22;16488;52.396;10.696;2023-05-10T11:26:39;14.70;99.90
29551;DHT22;16488;52.396;10.696;2023-05-10T11:29:06;14.60;99.90
29551;DHT22;16488;52.396;10.696;2023-05-10T11:31:31;14.60;99.90
29551;DHT22;16488;52.396;10.696;2023-05-10T11:33:58;14.60;99.90
29551;DHT22;16488;52.396;10.696;2023-05-10T11:36:26;14.50;99.90
29551;DHT22;16488;52.396;10.696;2023-05-10T11:38:53;14.40;99.90
29551;DHT22;16488;52.396;10.696;2023-05-10T11:41:20;14.30;99.90
29551;DHT22;16488;52.396;10.696;2023-05-10T11:43:54;14.30;99.90
29551;DHT22;16488;52.396;10.696;2023-05-10T11:46:23;14.20;99.90
29551;DHT22;16488;52.396;10.696;2023-05-10T11:48:54;14.00;99.90
29551;DHT22;16488;52.396;10.696;2023-05-10T11:51:24;13.80;99.90
29551;DHT22;16488;52.396;10.696;2023-05-10T11:53:53;13.80;99.90
29551;DHT22;16488;52.396;10.696;2023-05-10T11:56:19;13.90;99.90
29551;DHT22;16488;52.396;10.696;2023-05-10T11:58:54;13.80;99.90
29551;DHT22;16488;52.396;10.696;2023-05-10T12:01:21;13.80;99.90
29551;DHT22;16488;52.396;10.696;2023-05-10T12:03:48;13.80;99.90
29551;DHT22;16488;52.396;10.696;2023-05-10T12:06:14;13.80;99.90
29551;DHT22;16488;52.396;10.696;2023-05-10T12:08:44;13.80;99.90
29551;DHT22;16488;52.396;10.696;2023-05-10T12:11:12;13.80;99.90
29551;DHT22;16488;52.396;10.696;2023-05-10T12:13:41;13.90;99.90
29551;DHT22;16488;52.396;10.696;2023-05-10T12:16:21;14.10;99.90
29551;DHT22;16488;52.396;10.696;2023-05-10T12:18:51;14.20;99.90
29551;DHT22;16488;52.396;10.696;2023-05-10T12:21:17;14.40;99.90
29551;DHT22;16488;52.396;10.696;2023-05-10T12:23:45;14.40;99.90
29551;DHT22;16488;52.396;10.696;2023-05-10T12:26:12;14.50;99.90
29551;DHT22;16488;52.396;10.696;2023-05-10T12:28:38;14.40;99.90
29551;DHT22;16488;52.396;10.696;2023-05-10T12:31:06;14.40;99.90
29551;DHT22;16488;52.396;10.696;2023-05-10T12:33:39;14.60;99.90
29551;DHT22;16488;52.396;10.696;2023-05-10T12:36:07;14.70;99.90
29551;DHT22;16488;52.396;10.696;2023-05-10T12:38:35;14.70;99.90
29551;DHT22;16488;52.396;10.696;2023-05-10T12:41:05;14.80;99.90
29551;DHT22;16488;52.396;10.696;2023-05-10T12:43:32;14.60;99.90
29551;DHT22;16488;52.396;10.696;2023-05-10T12:45:58;14.70;99.90
29551;DHT22;16488;52.396;10.696;2023-05-10T12:48:24;14.80;99.90
29551;DHT22;16488;52.396;10.696;2023-05-10T12:50:50;14.70;99.90
29551;DHT22;16488;52.396;10.696;2023-05-10T12:53:15;14.80;99.90
29551;DHT22;16488;52.396;10.696;2023-05-10T12:55:42;14.90;99.90
29551;DHT22;16488;52.396;10.696;2023-05-10T12:58:08;14.90;99.90
29551;DHT22;16488;52.396;10.696;2023-05-10T13:00:33;15.10;99.90
29551;DHT22;16488;52.396;10.696;2023-05-10T13:02:59;15.20;99.90
29551;DHT22;16488;52.396;10.696;2023-05-10T13:05:25;15.20;99.90
29551;DHT22;16488;52.396;10.696;2023-05-10T13:07:50;15.10;99.90
29551;DHT22;16488;52.396;10.696;2023-05-10T13:10:16;15.20;99.90
29551;DHT22;16488;52.396;10.696;2023-05-10T13:12:42;15.40;99.90
29551;DHT22;16488;52.396;10.696;2023-05-10T13:15:07;15.20;99.90
29551;DHT22;16488;52.396;10.696;2023-05-10T13:17:33;15.30;99.90
29551;DHT22;16488;52.396;10.696;2023-05-10T13:19:59;15.40;99.90
29551;DHT22;16488;52.396;10.696;2023-05-10T13:22:25;15.60;99.90
29551;DHT22;16488;52.396;10.696;2023-05-10T13:24:50;15.90;99.90
29551;DHT22;16488;52.396;10.696;2023-05-10T13:27:16;15.90;99.90
29551;DHT22;16488;52.396;10.696;2023-05-10T13:29:41;15.60;99.90
29551;DHT22;16488;52.396;10.696;2023-05-10T13:32:07;15.50;99.90
29551;DHT22;16488;52.396;10.696;2023-05-10T13:34:32;15.70;99.90
29551;DHT22;16488;52.396;10.696;2023-05-10T13:36:58;15.70;99.90
29551;DHT22;16488;52.396;10.696;2023-05-10T13:39:24;15.90;99.90
29551;DHT22;16488;52.396;10.696;2023-05-10T13:41:49;15.90;99.90
29551;DHT22;16488;52.396;10.696;2023-05-10T13:44:15;15.90;99.90
29551;DHT22;16488;52.396;10.696;2023-05-10T13:46:41;15.90;99.90
29551;DHT22;16488;52.396;10.696;2023-05-10T13:49:10;15.90;99.90
29551;DHT22;16488;52.396;10.696;2023-05-10T13:51:36;16.00;99.90
29551;DHT22;16488;52.396;10.696;2023-05-10T13:54:04;16.10;99.90
29551;DHT22;16488;52.396;10.696;2023-05-10T13:56:30;16.20;99.90
29551;DHT22;16488;52.396;10.696;2023-05-10T13:58:56;16.20;99.90
29551;DHT22;16488;52.396;10.696;2023-05-10T14:01:23;16.30;99.90
29551;DHT22;16488;52.396;10.696;2023-05-10T14:03:49;16.30;99.90
29551;DHT22;16488;52.396;10.696;2023-05-10T14:06:15;16.30;99.90
29551;DHT22;16488;52.396;10.696;2023-05-10T14:08:40;16.30;99.90
29551;DHT22;16488;52.396;10.696;2023-05-10T14:11:06;16.40;99.90
29551;DHT22;16488;52.396;10.696;2023-05-10T14:13:32;16.50;99.90
29551;DHT22;16488;52.396;10.696;2023-05-10T14:15:58;16.60;99.90
29551;DHT22;16488;52.396;10.696;2023-05-10T14:18:28;16.60;99.90
29551;DHT22;16488;52.396;10.696;2023-05-10T14:20:54;16.70;99.90
29551;DHT22;16488;52.396;10.696;2023-05-10T14:23:21;16.70;99.90
29551;DHT22;16488;52.396;10.696;2023-05-10T14:25:50;16.60;99.90
29551;DHT22;16488;52.396;10.696;2023-05-10T14:28:16;16.70;99.90
29551;DHT22;16488;52.396;10.696;2023-05-10T14:30:46;16.60;99.90
29551;DHT22;16488;52.396;10.696;2023-05-10T14:33:12;16.60;99.90
29551;DHT22;16488;52.396;10.696;2023-05-10T14:35:38;16.60;99.90
29551;DHT22;16488;52.396;10.696;2023-05-10T14:38:04;16.50;99.90
29551;DHT22;16488;52.396;10.696;2023-05-10T14:40:30;16.50;99.90
29551;DHT22;16488;52.396;10.696;2023-05-10T14:42:56;16.50;99.90
29551;DHT22;16488;52.396;10.696;2023-05-10T14:45:22;16.60;99.90
29551;DHT22;16488;52.396;10.696;2023-05-10T14:47:48;16.50;99.90
29551;DHT22;16488;52.396;10.696;2023-05-10T14:50:14;16.50;99.90
29551;DHT22;16488;52.396;10.696;2023-05-10T14:52:39;16.60;99.90
29551;DHT22;16488;52.396;10.696;2023-05-10T14:55:06;16.60;99.90
29551;DHT22;16488;52.396;10.696;2023-05-10T14:57:32;16.50;99.90
29551;DHT22;16488;52.396;10.696;2023-05-10T14:59:58;16.40;99.90
29551;DHT22;16488;52.396;10.696;2023-05-10T15:02:24;16.50;99.90
29551;DHT22;16488;52.396;10.696;2023-05-10T15:04:50;16.50;99.90
29551;DHT22;16488;52.396;10.696;2023-05-10T15:07:16;16.50;99.90
29551;DHT22;16488;52.396;10.696;2023-05-10T15:09:44;16.40;99.90
29551;DHT22;16488;52.396;10.696;2023-05-10T15:12:09;16.40;99.90
29551;DHT22;16488;52.396;10.696;2023-05-10T15:14:35;16.40;99.90
29551;DHT22;16488;52.396;10.696;2023-05-10T15:17:03;16.40;99.90
29551;DHT22;16488;52.396;10.696;2023-05-10T15:19:28;16.50;99.90
29551;DHT22;16488;52.396;10.696;2023-05-10T15:21:55;16.50;99.90
29551;DHT22;16488;52.396;10.696;2023-05-10T15:24:21;16.50;99.90
29551;DHT22;16488;52.396;10.696;2023-05-10T15:26:47;16.40;99.90
29551;DHT22;16488;52.396;10.696;2023-05-10T15:29:13;16.50;99.90
29551;DHT22;16488;52.396;10.696;2023-05-10T15:31:48;16.50;99.90
29551;DHT22;16488;52.396;10.696;2023-05-10T15:34:15;16.60;99.90